createdAt,value
2018-08-23T00:00:55.590Z,65.16
2018-08-23T00:03:15.359Z,65.24
2018-08-23T00:05:27.612Z,65.16
2018-08-23T00:07:39.811Z,66.04
2018-08-23T00:09:52.134Z,65.53
2018-08-23T00:12:04.340Z,66.23
2018-08-23T00:14:17.021Z,66.13
2018-08-23T00:16:34.092Z,65.52
2018-08-23T00:18:46.284Z,66.17
2018-08-23T00:20:58.487Z,66.22
2018-08-23T00:23:10.683Z,65.32
2018-08-23T00:25:22.894Z,65.37
2018-08-23T00:27:35.071Z,65.48
2018-08-23T00:29:47.272Z,66.42
2018-08-23T00:32:02.155Z,66.73
2018-08-23T00:34:14.312Z,65.95
2018-08-23T00:36:26.484Z,66.61
2018-08-23T00:38:38.679Z,66.49
2018-08-23T00:40:50.858Z,65.95
2018-08-23T00:43:04.426Z,66.15
2018-08-23T00:45:17.910Z,66.86
2018-08-23T00:47:32.185Z,67.16
2018-08-23T00:49:44.395Z,67.21
2018-08-23T00:51:56.553Z,66.51
2018-08-23T00:54:08.873Z,67.29
2018-08-23T00:56:22.210Z,67.42
2018-08-23T00:58:34.414Z,66.53
2018-08-23T01:00:54.000Z,67.27
2018-08-23T01:03:06.195Z,67.84
2018-08-23T01:05:24.250Z,67.16
2018-08-23T01:07:36.435Z,67.89
2018-08-23T01:09:48.591Z,68.25
2018-08-23T01:12:00.793Z,68.08
2018-08-23T01:14:13.022Z,67.59
2018-08-23T01:16:25.182Z,67.92
2018-08-23T01:18:37.385Z,68.03
2018-08-23T01:20:50.805Z,67.19
2018-08-23T01:23:02.983Z,67.79
2018-08-23T01:25:15.134Z,67.95
2018-08-23T01:27:32.775Z,69.11
2018-08-23T01:29:44.958Z,69.53
2018-08-23T01:32:10.214Z,69.16
2018-08-23T01:34:22.457Z,69.92
2018-08-23T01:36:34.620Z,70.18
2018-08-23T01:38:46.818Z,69.55
2018-08-23T01:41:04.674Z,69.49
2018-08-23T01:43:16.907Z,70.21
2018-08-23T01:45:29.071Z,70.48
2018-08-23T01:47:51.931Z,70.26
2018-08-23T01:50:04.117Z,71.21
2018-08-23T01:52:16.270Z,71.20
2018-08-23T01:54:28.471Z,72.27
2018-08-23T01:56:40.634Z,72.05
2018-08-23T01:58:52.807Z,72.27
2018-08-23T02:01:13.703Z,71.87
2018-08-23T02:03:25.903Z,71.86
2018-08-23T02:05:42.087Z,72.43
2018-08-23T02:07:54.274Z,72.41
2018-08-23T02:10:06.551Z,71.53
2018-08-23T02:12:18.709Z,72.18
2018-08-23T02:14:35.346Z,71.87
2018-08-23T02:16:51.511Z,71.84
2018-08-23T02:19:03.946Z,72.08
2018-08-23T02:21:16.113Z,72.33
2018-08-23T02:23:28.258Z,71.75
2018-08-23T02:25:40.443Z,71.58
2018-08-23T02:28:02.621Z,71.43
2018-08-23T02:30:15.397Z,72.14
2018-08-23T02:32:27.535Z,71.23
2018-08-23T02:34:41.067Z,72.03
2018-08-23T02:36:53.803Z,71.23
2018-08-23T02:39:08.543Z,71.06
2018-08-23T02:41:20.750Z,72.06
2018-08-23T02:43:32.939Z,72.01
2018-08-23T02:45:52.095Z,71.22
2018-08-23T02:48:04.672Z,71.29
2018-08-23T02:50:16.876Z,71.66
2018-08-23T02:52:34.991Z,70.50
2018-08-23T02:54:47.160Z,71.27
2018-08-23T02:56:59.975Z,70.77
2018-08-23T02:59:12.140Z,71.44
2018-08-23T03:01:25.416Z,70.78
2018-08-23T03:03:37.829Z,71.78
2018-08-23T03:05:50.012Z,71.50
2018-08-23T03:08:02.210Z,71.40
2018-08-23T03:10:14.389Z,71.12
2018-08-23T03:12:26.628Z,71.76
2018-08-23T03:14:39.350Z,72.25
2018-08-23T03:17:09.619Z,71.90
2018-08-23T03:19:21.779Z,71.34
2018-08-23T03:21:33.963Z,71.65
2018-08-23T03:23:46.130Z,72.13
2018-08-23T03:25:58.310Z,71.46
2018-08-23T03:28:10.550Z,72.43
2018-08-23T03:30:23.364Z,71.89
2018-08-23T03:32:35.538Z,72.08
2018-08-23T03:34:47.709Z,71.93
2018-08-23T03:36:59.852Z,72.31
2018-08-23T03:39:12.032Z,73.26
2018-08-23T03:41:24.189Z,73.08
2018-08-23T03:43:36.396Z,73.43
2018-08-23T03:45:48.563Z,73.70
2018-08-23T03:48:00.770Z,73.19
2018-08-23T03:50:12.929Z,73.91
2018-08-23T03:52:30.876Z,73.42
2018-08-23T03:54:53.659Z,73.49
2018-08-23T03:57:13.190Z,73.04
2018-08-23T03:59:25.385Z,73.27
2018-08-23T04:01:37.542Z,73.66
2018-08-23T04:03:50.178Z,73.95
2018-08-23T04:06:19.287Z,73.02
2018-08-23T04:08:31.432Z,73.87
2018-08-23T04:10:43.666Z,73.42
2018-08-23T04:12:55.826Z,73.77
2018-08-23T04:15:22.594Z,73.43
2018-08-23T04:17:34.743Z,73.40
2018-08-23T04:19:47.955Z,74.31
2018-08-23T04:22:00.129Z,73.37
2018-08-23T04:24:12.311Z,74.33
2018-08-23T04:26:25.046Z,74.39
2018-08-23T04:28:37.201Z,73.41
2018-08-23T04:30:49.396Z,73.48
2018-08-23T04:33:01.639Z,74.43
2018-08-23T04:35:34.451Z,73.62
2018-08-23T04:37:47.033Z,74.37
2018-08-23T04:40:02.651Z,74.45
2018-08-23T04:42:14.902Z,74.81
2018-08-23T04:44:27.812Z,74.74
2018-08-23T04:46:39.999Z,73.86
2018-08-23T04:48:52.308Z,73.66
2018-08-23T04:51:04.763Z,73.62
2018-08-23T04:53:16.930Z,73.62
2018-08-23T04:55:29.139Z,73.50
2018-08-23T04:57:41.327Z,73.73
2018-08-23T04:59:53.494Z,73.69
2018-08-23T05:02:05.854Z,74.17
2018-08-23T05:04:18.048Z,73.12
2018-08-23T05:06:30.243Z,73.01
2018-08-23T05:08:42.410Z,73.49
2018-08-23T05:10:54.586Z,72.64
2018-08-23T05:13:06.770Z,73.69
2018-08-23T05:15:18.946Z,73.46
2018-08-23T05:17:31.146Z,74.01
2018-08-23T05:19:43.324Z,73.02
2018-08-23T05:21:55.526Z,73.13
2018-08-23T05:24:13.435Z,73.62
2018-08-23T05:26:25.665Z,72.60
2018-08-23T05:28:39.450Z,73.10
2018-08-23T05:30:51.637Z,72.03
2018-08-23T05:33:09.450Z,71.54
2018-08-23T05:35:21.614Z,71.79
2018-08-23T05:37:33.834Z,70.67
2018-08-23T05:39:49.827Z,69.87
2018-08-23T05:42:01.992Z,68.53
2018-08-23T05:44:18.504Z,68.14
2018-08-23T05:46:36.669Z,67.06
2018-08-23T05:48:48.907Z,66.59
2018-08-23T05:51:04.098Z,66.62
2018-08-23T05:53:17.230Z,65.38
2018-08-23T05:55:29.406Z,65.21
2018-08-23T05:57:41.627Z,65.43
2018-08-23T05:59:54.558Z,64.14
2018-08-23T06:02:06.798Z,64.58
2018-08-23T06:04:29.337Z,63.93
2018-08-23T06:06:41.640Z,65.23
2018-08-23T06:08:55.451Z,64.46
2018-08-23T06:11:08.713Z,64.26
2018-08-23T06:13:20.912Z,65.48
2018-08-23T06:15:37.682Z,65.01
2018-08-23T06:17:49.867Z,64.91
2018-08-23T06:20:02.144Z,65.81
2018-08-23T06:22:14.254Z,65.93
2018-08-23T06:24:29.326Z,66.98
2018-08-23T06:26:47.226Z,66.53
2018-08-23T06:28:59.446Z,66.72
2018-08-23T06:31:11.628Z,65.66
2018-08-23T06:33:36.430Z,64.80
2018-08-23T06:35:48.514Z,65.42
2018-08-23T06:38:00.691Z,64.21
2018-08-23T06:40:12.862Z,64.25
2018-08-23T06:42:42.430Z,63.77
2018-08-23T06:44:54.658Z,64.39
2018-08-23T06:47:06.909Z,63.75
2018-08-23T06:49:19.101Z,64.50
2018-08-23T06:51:31.269Z,64.00
2018-08-23T06:53:44.926Z,64.17
2018-08-23T06:55:57.155Z,63.66
2018-08-23T06:58:09.368Z,63.31
2018-08-23T07:00:24.647Z,62.99
2018-08-23T07:02:41.497Z,62.31
2018-08-23T07:04:53.806Z,62.62
2018-08-23T07:07:08.774Z,63.33
2018-08-23T07:09:20.922Z,63.20
2018-08-23T07:11:33.131Z,63.16
2018-08-23T07:13:45.379Z,63.41
2018-08-23T07:16:00.168Z,62.60
2018-08-23T07:18:16.079Z,61.65
2018-08-23T07:20:28.254Z,62.50
2018-08-23T07:22:40.463Z,62.70
2018-08-23T07:24:53.876Z,62.59
2018-08-23T07:27:08.506Z,61.96
2018-08-23T07:29:20.709Z,62.67
2018-08-23T07:31:33.155Z,62.04
2018-08-23T07:33:49.678Z,62.60
2018-08-23T07:36:16.615Z,61.79
2018-08-23T07:38:28.771Z,62.99
2018-08-23T07:40:40.951Z,62.10
2018-08-23T07:42:54.389Z,61.77
2018-08-23T07:45:07.376Z,62.12
2018-08-23T07:47:20.071Z,63.02
2018-08-23T07:49:32.254Z,62.42
2018-08-23T07:51:44.427Z,61.39
2018-08-23T07:54:01.198Z,61.63
2018-08-23T07:56:19.766Z,61.77
2018-08-23T07:58:31.966Z,61.32
2018-08-23T08:00:44.156Z,61.45
2018-08-23T08:02:56.387Z,60.42
2018-08-23T08:05:09.066Z,60.38
2018-08-23T08:07:29.354Z,58.70
2018-08-23T08:09:41.519Z,58.68
2018-08-23T08:11:59.512Z,59.79
2018-08-23T08:14:17.267Z,60.11
2018-08-23T08:16:32.414Z,59.39
2018-08-23T08:18:44.639Z,59.06
2018-08-23T08:21:03.328Z,57.76
2018-08-23T08:23:16.552Z,55.59
2018-08-23T08:25:28.735Z,53.73
2018-08-23T08:27:40.951Z,54.35
2018-08-23T08:29:53.161Z,54.51
2018-08-23T08:32:06.323Z,54.07
2018-08-23T08:34:18.730Z,54.29
2018-08-23T08:36:32.186Z,54.50
2018-08-23T08:38:44.421Z,53.46
2018-08-23T08:40:56.891Z,53.52
2018-08-23T08:43:09.118Z,53.05
2018-08-23T08:45:24.727Z,52.27
2018-08-23T08:47:37.327Z,52.86
2018-08-23T08:49:49.549Z,52.59
2018-08-23T08:52:01.741Z,53.12
2018-08-23T08:54:14.003Z,52.23
2018-08-23T08:56:58.389Z,51.68
2018-08-23T08:59:10.447Z,48.65
2018-08-23T09:01:22.646Z,48.26
2018-08-23T09:03:36.047Z,49.56
2018-08-23T09:05:48.262Z,48.41
2018-08-23T09:08:00.470Z,50.95
2018-08-23T09:10:12.695Z,50.04
2018-08-23T09:12:24.874Z,50.10
2018-08-23T09:14:38.173Z,50.24
2018-08-23T09:16:50.363Z,51.36
2018-08-23T09:19:04.576Z,50.67
2018-08-23T09:21:16.798Z,49.84
2018-08-23T09:23:28.983Z,51.51
2018-08-23T09:25:42.487Z,51.28
2018-08-23T09:27:54.683Z,51.21
2018-08-23T09:30:12.593Z,51.97
2018-08-23T09:32:28.110Z,51.14
2018-08-23T09:34:40.982Z,51.87
2018-08-23T09:36:53.282Z,50.94
2018-08-23T09:39:08.499Z,51.44
2018-08-23T09:41:21.315Z,51.11
2018-08-23T09:43:33.572Z,51.38
2018-08-23T09:45:45.860Z,52.64
2018-08-23T09:47:58.050Z,50.73
2018-08-23T09:50:10.349Z,51.21
2018-08-23T09:52:28.795Z,51.49
2018-08-23T09:54:41.027Z,50.80
2018-08-23T09:56:53.226Z,51.32
2018-08-23T09:59:05.418Z,49.46
2018-08-23T10:01:23.339Z,48.05
2018-08-23T10:03:41.250Z,47.87
2018-08-23T10:05:59.176Z,49.06
2018-08-23T10:08:16.920Z,47.95
2018-08-23T10:10:34.833Z,46.60
2018-08-23T10:12:52.747Z,47.34
2018-08-23T10:15:10.568Z,47.25
2018-08-23T10:18:28.019Z,45.85
2018-08-23T10:20:46.146Z,44.35
2018-08-23T10:23:04.038Z,42.97
2018-08-23T10:25:36.674Z,44.86
2018-08-23T10:27:49.362Z,42.43
2018-08-23T10:30:01.582Z,43.70
2018-08-23T10:32:13.896Z,40.73
2018-08-23T10:34:26.043Z,42.11
2018-08-23T10:36:38.267Z,41.57
2018-08-23T10:38:50.537Z,42.39
2018-08-23T10:41:04.081Z,41.26
2018-08-23T10:43:16.878Z,41.88
2018-08-23T10:45:29.057Z,40.96
2018-08-23T10:47:46.911Z,41.66
2018-08-23T10:49:59.127Z,40.94
2018-08-23T10:52:11.399Z,41.08
2018-08-23T10:54:23.585Z,41.74
2018-08-23T10:56:35.822Z,39.97
2018-08-23T10:58:48.018Z,40.87
2018-08-23T11:01:00.184Z,40.61
2018-08-23T11:03:12.410Z,39.51
2018-08-23T11:05:24.596Z,40.60
2018-08-23T11:07:42.559Z,40.66
2018-08-23T11:10:00.446Z,39.76
2018-08-23T11:12:18.188Z,40.43
2018-08-23T11:14:35.984Z,40.66
2018-08-23T11:19:02.550Z,40.36
2018-08-23T11:21:16.586Z,39.67
2018-08-23T11:23:28.875Z,38.79
2018-08-23T11:25:41.111Z,38.92
2018-08-23T11:27:54.243Z,39.50
2018-08-23T11:30:06.517Z,38.53
2018-08-23T11:32:18.696Z,38.79
2018-08-23T11:34:30.894Z,38.94
2018-08-23T11:36:43.136Z,38.32
2018-08-23T11:38:55.404Z,38.63
2018-08-23T11:41:07.572Z,39.82
2018-08-23T11:43:19.813Z,39.61
2018-08-23T11:45:32.039Z,39.09
2018-08-23T11:47:44.267Z,39.99
2018-08-23T11:49:56.490Z,41.04
2018-08-23T11:52:08.702Z,39.20
2018-08-23T11:54:20.903Z,39.49
2018-08-23T11:56:33.143Z,38.62
2018-08-23T11:58:45.348Z,39.18
2018-08-23T12:01:03.154Z,41.40
2018-08-23T12:03:15.390Z,40.72
2018-08-23T12:05:27.576Z,39.83
2018-08-23T12:07:44.360Z,38.89
2018-08-23T12:09:56.561Z,38.58
2018-08-23T12:12:08.930Z,38.53
2018-08-23T12:14:21.331Z,40.68
2018-08-23T12:16:33.560Z,40.49
2018-08-23T12:18:45.767Z,40.60
2018-08-23T12:20:57.983Z,41.10
2018-08-23T12:23:10.161Z,40.49
2018-08-23T12:25:22.368Z,41.23
2018-08-23T12:27:34.572Z,40.44
2018-08-23T12:29:46.780Z,40.63
2018-08-23T12:31:59.030Z,40.69
2018-08-23T12:34:11.250Z,41.46
2018-08-23T12:36:28.975Z,41.87
2018-08-23T12:38:46.691Z,42.58
2018-08-23T12:41:04.697Z,44.05
2018-08-23T12:43:18.868Z,43.27
2018-08-23T12:45:31.011Z,42.92
2018-08-23T12:47:43.695Z,43.63
2018-08-23T12:50:01.624Z,43.73
2018-08-23T12:52:13.821Z,45.04
2018-08-23T12:54:26.056Z,45.16
2018-08-23T12:56:38.323Z,44.02
2018-08-23T12:58:50.523Z,43.01
2018-08-23T13:01:02.759Z,45.16
2018-08-23T13:03:15.158Z,47.11
2018-08-23T13:05:27.312Z,48.73
2018-08-23T13:07:39.546Z,52.05
2018-08-23T13:09:51.818Z,53.01
2018-08-23T13:12:04.135Z,53.98
2018-08-23T13:14:16.363Z,54.10
2018-08-23T13:16:28.553Z,55.53
2018-08-23T13:18:40.815Z,56.86
2018-08-23T13:20:53.015Z,58.09
2018-08-23T13:23:05.306Z,57.67
2018-08-23T13:25:17.499Z,59.18
2018-08-23T13:27:30.092Z,59.84
2018-08-23T13:29:42.232Z,60.60
2018-08-23T13:31:54.821Z,63.11
2018-08-23T13:34:07.018Z,64.08
2018-08-23T13:36:19.241Z,64.54
2018-08-23T13:38:31.459Z,66.77
2018-08-23T13:40:43.663Z,66.79
2018-08-23T13:42:55.868Z,70.17
2018-08-23T13:45:08.090Z,68.93
2018-08-23T13:47:20.307Z,70.58
2018-08-23T13:49:32.530Z,70.46
2018-08-23T13:51:44.751Z,70.29
2018-08-23T13:53:57.176Z,71.13
2018-08-23T13:56:09.264Z,71.61
2018-08-23T13:58:21.478Z,72.08
2018-08-23T14:00:39.774Z,72.29
2018-08-23T14:02:52.051Z,72.78
2018-08-23T14:05:04.267Z,72.20
2018-08-23T14:07:16.498Z,73.09
2018-08-23T14:09:28.725Z,74.04
2018-08-23T14:11:40.931Z,74.08
2018-08-23T14:13:53.111Z,74.81
2018-08-23T14:16:05.352Z,74.54
2018-08-23T14:18:17.548Z,75.69
2018-08-23T14:20:29.795Z,75.63
2018-08-23T14:22:42.015Z,75.08
2018-08-23T14:24:54.284Z,74.04
2018-08-23T14:27:06.510Z,75.84
2018-08-23T14:29:18.803Z,75.99
2018-08-23T14:31:31.047Z,75.88
2018-08-23T14:33:43.281Z,76.14
2018-08-23T14:35:55.474Z,76.18
2018-08-23T14:38:07.687Z,76.46
2018-08-23T14:40:20.044Z,77.18
2018-08-23T14:42:32.231Z,75.87
2018-08-23T14:44:44.422Z,76.39
2018-08-23T14:47:02.147Z,75.83
2018-08-23T14:49:20.025Z,75.24
2018-08-23T14:51:32.233Z,75.62
2018-08-23T14:53:45.356Z,75.09
2018-08-23T14:56:03.258Z,73.95
2018-08-23T14:58:15.495Z,73.38
2018-08-23T15:00:27.731Z,74.23
2018-08-23T15:02:39.983Z,74.87
2018-08-23T15:04:52.183Z,74.86
2018-08-23T15:07:04.570Z,73.25
2018-08-23T15:09:16.834Z,73.25
2018-08-23T15:11:29.101Z,71.78
2018-08-23T15:13:41.266Z,72.38
2018-08-23T15:15:53.475Z,73.38
2018-08-23T15:18:05.689Z,73.47
2018-08-23T15:20:17.939Z,74.70
2018-08-23T15:22:30.174Z,75.25
2018-08-23T15:24:42.399Z,74.00
2018-08-23T15:26:54.666Z,74.78
2018-08-23T15:29:11.352Z,75.02
2018-08-23T15:31:23.558Z,73.62
2018-08-23T15:33:35.760Z,74.90
2018-08-23T15:35:47.945Z,74.59
2018-08-23T15:38:00.193Z,74.43
2018-08-23T15:40:12.391Z,74.84
2018-08-23T15:42:24.593Z,75.63
2018-08-23T15:44:36.804Z,75.25
2018-08-23T15:46:49.142Z,75.38
2018-08-23T15:49:01.339Z,75.37
2018-08-23T15:51:13.615Z,74.29
2018-08-23T15:53:25.891Z,74.29
2018-08-23T15:55:38.266Z,73.70
2018-08-23T15:57:50.713Z,72.86
2018-08-23T16:00:03.057Z,73.79
2018-08-23T16:02:15.341Z,71.06
2018-08-23T16:04:27.559Z,69.67
2018-08-23T16:06:39.833Z,67.86
2018-08-23T16:08:52.663Z,67.62
2018-08-23T16:11:04.885Z,67.11
2018-08-23T16:13:17.114Z,69.06
2018-08-23T16:15:29.534Z,68.47
2018-08-23T16:17:47.464Z,68.29
2018-08-23T16:20:05.146Z,68.00
2018-08-23T16:22:17.403Z,66.77
2018-08-23T16:24:29.638Z,68.00
2018-08-23T16:26:47.549Z,68.83
2018-08-23T16:29:00.159Z,67.92
2018-08-23T16:31:12.326Z,67.99
2018-08-23T16:33:24.574Z,67.33
2018-08-23T16:35:36.765Z,66.28
2018-08-23T16:37:48.952Z,65.94
2018-08-23T16:40:01.291Z,66.02
2018-08-23T16:42:13.483Z,65.49
2018-08-23T16:44:25.765Z,64.86
2018-08-23T16:46:37.971Z,65.46
2018-08-23T16:48:50.220Z,65.21
2018-08-23T16:51:02.441Z,64.85
2018-08-23T16:53:14.741Z,65.68
2018-08-23T16:55:26.903Z,64.78
2018-08-23T16:57:39.141Z,66.14
2018-08-23T16:59:51.369Z,66.60
2018-08-23T17:02:03.611Z,67.11
2018-08-23T17:04:15.903Z,66.92
2018-08-23T17:06:28.767Z,66.57
2018-08-23T17:08:40.959Z,64.83
2018-08-23T17:10:53.174Z,65.09
2018-08-23T17:13:05.412Z,64.37
2018-08-23T17:15:17.674Z,65.56
2018-08-23T17:17:31.290Z,65.32
2018-08-23T17:19:43.521Z,65.66
2018-08-23T17:21:55.746Z,64.99
2018-08-23T17:24:07.957Z,65.29
2018-08-23T17:26:20.182Z,65.80
2018-08-23T17:28:32.386Z,65.73
2018-08-23T17:30:44.634Z,65.74
2018-08-23T17:32:56.828Z,66.44
2018-08-23T17:35:09.044Z,66.53
2018-08-23T17:37:21.272Z,66.62
2018-08-23T17:39:33.468Z,67.02
2018-08-23T17:41:45.675Z,66.11
2018-08-23T17:43:57.896Z,66.77
2018-08-23T17:46:10.099Z,65.96
2018-08-23T17:48:22.406Z,66.79
2018-08-23T17:50:34.575Z,66.22
2018-08-23T17:52:46.827Z,66.88
2018-08-23T17:54:59.068Z,67.26
2018-08-23T17:57:11.335Z,66.93
2018-08-23T17:59:23.555Z,67.00
2018-08-23T18:01:35.794Z,67.13
2018-08-23T18:03:48.078Z,68.41
2018-08-23T18:06:00.260Z,67.39
2018-08-23T18:08:12.513Z,68.44
2018-08-23T18:10:24.754Z,68.50
2018-08-23T18:12:36.986Z,68.75
2018-08-23T18:14:49.177Z,69.01
2018-08-23T18:17:01.499Z,68.57
2018-08-23T18:19:13.674Z,69.06
2018-08-23T18:21:25.903Z,69.00
2018-08-23T18:23:38.156Z,68.57
2018-08-23T18:25:50.334Z,69.42
2018-08-23T18:28:02.914Z,69.92
2018-08-23T18:30:15.158Z,69.46
2018-08-23T18:32:27.382Z,70.40
2018-08-23T18:34:39.587Z,69.72
2018-08-23T18:36:51.811Z,70.01
2018-08-23T18:39:06.711Z,70.56
2018-08-23T18:41:18.933Z,71.71
2018-08-23T18:43:31.170Z,70.81
2018-08-23T18:45:43.404Z,70.33
2018-08-23T18:47:55.626Z,69.97
2018-08-23T18:50:07.854Z,70.61
2018-08-23T18:52:20.052Z,70.42
2018-08-23T18:54:32.279Z,70.42
2018-08-23T18:56:44.472Z,70.85
2018-08-23T18:58:57.055Z,71.17
2018-08-23T19:01:09.311Z,71.62
2018-08-23T19:03:21.600Z,71.63
2018-08-23T19:05:33.869Z,72.03
2018-08-23T19:07:46.117Z,72.12
2018-08-23T19:09:59.126Z,71.69
2018-08-23T19:12:11.342Z,71.76
2018-08-23T19:14:23.536Z,72.17
2018-08-23T19:16:41.483Z,71.64
2018-08-23T19:18:53.757Z,71.71
2018-08-23T19:21:05.990Z,72.37
2018-08-23T19:23:18.202Z,73.12
2018-08-23T19:25:30.412Z,73.16
2018-08-23T19:27:42.651Z,73.57
2018-08-23T19:29:54.871Z,73.96
2018-08-23T19:32:07.119Z,73.47
2018-08-23T19:34:19.329Z,74.15
2018-08-23T19:36:31.541Z,73.68
2018-08-23T19:38:43.739Z,73.69
2018-08-23T19:40:56.011Z,73.70
2018-08-23T19:43:08.169Z,74.58
2018-08-23T19:45:20.376Z,73.47
2018-08-23T19:47:38.299Z,73.52
2018-08-23T19:49:51.311Z,73.41
2018-08-23T19:52:03.538Z,73.17
2018-08-23T19:54:15.723Z,73.02
2018-08-23T19:56:28.077Z,73.45
2018-08-23T19:58:40.336Z,73.10
2018-08-23T20:00:52.518Z,73.78
2018-08-23T20:03:04.808Z,73.80
2018-08-23T20:05:17.003Z,74.12
2018-08-23T20:07:29.244Z,73.30
2018-08-23T20:09:41.479Z,73.98
2018-08-23T20:11:53.681Z,73.57
2018-08-23T20:14:05.906Z,73.95
2018-08-23T20:16:18.193Z,73.29
2018-08-23T20:18:30.399Z,72.93
2018-08-23T20:20:42.603Z,73.56
2018-08-23T20:22:54.787Z,73.66
2018-08-23T20:25:07.016Z,72.90
2018-08-23T20:27:19.233Z,73.10
2018-08-23T20:29:32.592Z,73.04
2018-08-23T20:31:44.791Z,73.58
2018-08-23T20:33:57.046Z,73.55
2018-08-23T20:36:09.247Z,73.90
2018-08-23T20:38:21.493Z,73.85
2018-08-23T20:40:33.720Z,73.98
2018-08-23T20:42:45.908Z,73.02
2018-08-23T20:44:58.078Z,73.80
2018-08-23T20:47:10.380Z,73.02
2018-08-23T20:49:22.712Z,73.11
2018-08-23T20:51:35.461Z,73.95
2018-08-23T20:53:47.670Z,73.65
2018-08-23T20:55:59.882Z,74.36
2018-08-23T20:58:12.099Z,73.65
2018-08-23T21:00:24.363Z,73.80
2018-08-23T21:02:36.558Z,74.55
2018-08-23T21:04:48.799Z,73.73
2018-08-23T21:07:00.970Z,74.12
2018-08-23T21:09:13.385Z,74.57
2018-08-23T21:11:25.682Z,74.59
2018-08-23T21:13:37.916Z,74.11
2018-08-23T21:15:50.175Z,73.38
2018-08-23T21:18:02.465Z,73.84
2018-08-23T21:20:14.578Z,73.71
2018-08-23T21:22:26.813Z,74.71
2018-08-23T21:24:39.023Z,74.05
2018-08-23T21:26:51.363Z,74.07
2018-08-23T21:29:03.627Z,74.43
2018-08-23T21:31:15.950Z,74.27
2018-08-23T21:33:28.161Z,73.27
2018-08-23T21:35:40.340Z,72.14
2018-08-23T21:37:52.519Z,72.32
2018-08-23T21:40:04.768Z,71.82
2018-08-23T21:42:16.954Z,71.45
2018-08-23T21:44:29.107Z,71.39
2018-08-23T21:46:41.324Z,71.06
2018-08-23T21:48:53.550Z,71.25
2018-08-23T21:51:05.818Z,70.49
2018-08-23T21:53:18.069Z,71.03
2018-08-23T21:55:35.923Z,70.88
2018-08-23T21:57:48.083Z,70.82
2018-08-23T22:00:00.292Z,71.65
2018-08-23T22:02:18.442Z,72.26
2018-08-23T22:04:30.706Z,72.55
2018-08-23T22:06:42.963Z,72.92
2018-08-23T22:08:55.136Z,74.36
2018-08-23T22:11:07.355Z,74.80
2018-08-23T22:13:19.534Z,75.17
2018-08-23T22:15:31.729Z,74.76
2018-08-23T22:17:44.002Z,75.60
2018-08-23T22:19:56.206Z,75.55
2018-08-23T22:22:08.729Z,75.83
2018-08-23T22:24:20.972Z,74.85
2018-08-23T22:26:33.221Z,75.25
2018-08-23T22:28:45.423Z,75.33
2018-08-23T22:30:57.618Z,75.58
2018-08-23T22:33:11.169Z,76.32
2018-08-23T22:35:23.340Z,75.95
2018-08-23T22:37:35.568Z,76.41
2018-08-23T22:39:47.802Z,75.81
2018-08-23T22:42:00.258Z,76.62
2018-08-23T22:44:14.758Z,76.86
2018-08-23T22:46:26.910Z,76.52
2018-08-23T22:48:39.102Z,77.41
2018-08-23T22:50:51.271Z,76.97
2018-08-23T22:53:03.511Z,77.66
2018-08-23T22:55:15.722Z,77.59
2018-08-23T22:57:27.889Z,78.32
2018-08-23T22:59:40.114Z,78.26
2018-08-23T23:01:52.375Z,77.43
2018-08-23T23:04:10.228Z,77.58
2018-08-23T23:06:22.430Z,77.89
2018-08-23T23:08:34.637Z,78.01
2018-08-23T23:10:46.827Z,77.17
2018-08-23T23:12:59.015Z,77.16
2018-08-23T23:15:16.995Z,77.95
2018-08-23T23:17:29.187Z,77.22
2018-08-23T23:19:41.381Z,78.07
2018-08-23T23:21:53.630Z,77.65
2018-08-23T23:24:10.377Z,78.33
2018-08-23T23:26:22.554Z,78.31
2018-08-23T23:28:34.719Z,77.56
2018-08-23T23:30:46.983Z,77.25
2018-08-23T23:32:59.156Z,77.31
2018-08-23T23:35:11.341Z,77.99
2018-08-23T23:37:24.239Z,78.02
2018-08-23T23:39:36.509Z,77.90
2018-08-23T23:41:48.805Z,77.99
2018-08-23T23:44:00.961Z,78.45
2018-08-23T23:46:13.184Z,77.91
2018-08-23T23:48:25.370Z,78.17
2018-08-23T23:50:37.545Z,78.79
2018-08-23T23:52:49.694Z,77.95
2018-08-23T23:55:01.914Z,78.76
2018-08-23T23:57:14.084Z,78.55
2018-08-23T23:59:26.254Z,77.85
